Time;durP1;ratioP1;P1;durP2;ratioP2;P2;SDS_P1;SDS_P2;PMS_P1;PMS_P2;Temp;Humidity;BMP_temperature;BMP_pressure;BME280_temperature;BME280_humidity;BME280_pressure;Samples;Min_cycle;Max_cycle;Signal;HPM_P1;HPM_P2
2022/10/16 00:01:18;;;;;;;1.50;1.27;;;;;;;13.08;91.09;100896.94;5016548;28;20030;-84
2022/10/16 00:03:45;;;;;;;3.40;1.15;;;;;;;13.06;90.93;100890.88;4999439;28;20030;-84
2022/10/16 00:06:11;;;;;;;1.25;0.82;;;;;;;13.08;90.92;100899.56;4997605;28;20038;-84
2022/10/16 00:08:38;;;;;;;1.98;1.08;;;;;;;13.06;91.11;100901.38;4991543;28;20348;-84
2022/10/16 00:11:05;;;;;;;3.38;0.93;;;;;;;13.05;90.88;100900.53;4996143;28;20077;-84
2022/10/16 00:13:32;;;;;;;1.33;0.90;;;;;;;13.05;90.98;100900.53;5013894;28;20037;-84
2022/10/16 00:15:59;;;;;;;1.48;0.85;;;;;;;13.07;90.71;100893.44;4985221;28;20069;-85
2022/10/16 00:18:25;;;;;;;1.67;1.00;;;;;;;13.03;89.86;100889.25;4997209;28;20034;-84
2022/10/16 00:20:51;;;;;;;2.50;0.90;;;;;;;13.07;90.19;100905.72;4999776;28;20022;-84
2022/10/16 00:23:17;;;;;;;1.55;0.90;;;;;;;13.03;90.07;100894.50;5005495;28;20037;-84
2022/10/16 00:25:43;;;;;;;1.75;1.08;;;;;;;13.04;89.97;100895.34;4980149;28;20411;-84
2022/10/16 00:28:08;;;;;;;1.05;0.80;;;;;;;13.04;89.95;100895.34;4995930;28;20408;-84
2022/10/16 00:30:38;;;;;;;0.93;0.80;;;;;;;13.03;90.02;100888.41;4979629;28;20050;-84
2022/10/16 00:33:03;;;;;;;2.25;0.80;;;;;;;13.00;90.10;100884.16;5013638;28;20069;-84
2022/10/16 00:35:29;;;;;;;0.90;0.70;;;;;;;13.03;90.38;100889.25;4995690;28;20145;-84
2022/10/16 00:37:54;;;;;;;1.08;0.85;;;;;;;13.03;90.11;100891.88;5013060;28;20041;-84
2022/10/16 00:40:20;;;;;;;2.03;0.70;;;;;;;13.04;90.25;100900.63;5016847;28;20033;-84
2022/10/16 00:42:45;;;;;;;1.45;0.65;;;;;;;13.02;90.38;100878.81;5016914;28;20022;-84
2022/10/16 00:45:36;;;;;;;1.02;0.57;;;;;;;13.03;90.68;100883.16;5016220;28;20202;-84
2022/10/16 00:48:02;;;;;;;1.02;0.70;;;;;;;13.03;90.81;100885.78;5016260;28;20261;-84
2022/10/16 00:50:31;;;;;;;1.85;0.60;;;;;;;13.03;90.82;100881.38;5016433;28;20084;-84
2022/10/16 00:52:58;;;;;;;1.40;0.57;;;;;;;13.02;91.06;100877.06;5016519;28;20222;-84
2022/10/16 00:55:25;;;;;;;1.35;0.70;;;;;;;13.03;91.07;100881.38;5016310;28;20423;-84
2022/10/16 00:57:51;;;;;;;1.48;0.82;;;;;;;13.04;91.01;100882.22;5011031;28;20052;-84
2022/10/16 01:00:21;;;;;;;0.80;0.80;;;;;;;13.02;91.16;100877.06;5015858;28;20022;-84
2022/10/16 01:02:55;;;;;;;2.20;0.90;;;;;;;13.01;91.27;100885.03;5003529;28;20045;-84
2022/10/16 01:05:24;;;;;;;1.95;0.90;;;;;;;13.03;91.64;100898.94;4996356;28;20034;-84
2022/10/16 01:07:55;;;;;;;1.13;0.90;;;;;;;13.02;92.00;100903.34;5006137;28;20030;-84
2022/10/16 01:10:31;;;;;;;2.55;1.10;;;;;;;13.02;92.11;100905.09;5016003;28;20085;-84
2022/10/16 01:13:24;;;;;;;1.42;1.10;;;;;;;13.01;92.09;100896.38;5019199;28;20022;-84
2022/10/16 01:15:59;;;;;;;1.00;0.90;;;;;;;13.03;92.06;100893.69;5019978;28;20216;-84
2022/10/16 01:18:46;;;;;;;3.38;1.10;;;;;;;13.01;92.16;100892.91;5019329;28;20032;-84
2022/10/16 01:21:26;;;;;;;1.85;0.98;;;;;;;13.03;92.39;100904.19;5019706;28;20041;-84
2022/10/16 01:24:29;;;;;;;1.05;0.88;;;;;;;13.02;92.45;100903.34;5019408;28;20026;-84
2022/10/16 01:27:01;;;;;;;2.65;0.80;;;;;;;13.00;92.30;100902.53;5017192;28;20064;-84
2022/10/16 01:29:34;;;;;;;5.07;0.93;;;;;;;13.01;92.86;100903.41;5003017;28;20061;-84
2022/10/16 01:32:04;;;;;;;1.48;1.00;;;;;;;13.01;92.46;100903.41;5009728;28;20057;-84
2022/10/16 01:34:47;;;;;;;1.23;0.80;;;;;;;13.00;92.64;100906.97;5020318;28;20026;-84
2022/10/16 01:37:18;;;;;;;1.65;1.30;;;;;;;12.98;92.42;100909.66;5019308;28;20119;-84
2022/10/16 01:39:50;;;;;;;1.90;0.88;;;;;;;12.98;92.58;100909.66;5019858;28;20037;-84
2022/10/16 01:42:21;;;;;;;2.15;1.10;;;;;;;12.99;92.71;100911.38;5037478;28;20041;-84
2022/10/16 01:44:49;;;;;;;1.15;0.90;;;;;;;12.99;92.89;100918.44;5023055;28;20395;-84
2022/10/16 01:47:17;;;;;;;0.90;0.73;;;;;;;12.98;92.85;100909.66;5016388;28;20044;-84
2022/10/16 01:49:44;;;;;;;0.80;0.80;;;;;;;12.99;92.77;100914.00;5025510;28;20317;-84
2022/10/16 01:52:14;;;;;;;1.52;0.95;;;;;;;13.00;92.62;100912.22;5019611;28;20057;-84
2022/10/16 01:54:43;;;;;;;2.45;1.00;;;;;;;12.98;92.67;100914.91;5030543;28;20037;-84
2022/10/16 01:57:10;;;;;;;;;;;;;;;12.99;92.82;100921.91;5039015;28;20025;-84
2022/10/16 01:59:44;;;;;;;0.75;0.75;;;;;;;12.98;92.68;100917.56;5037984;28;19963;-84
2022/10/16 02:02:11;;;;;;;1.05;0.93;;;;;;;12.98;92.90;100925.44;5035564;28;20092;-84
2022/10/16 02:04:42;;;;;;;6.65;1.45;;;;;;;12.97;92.75;100921.13;5038122;28;20125;-84
2022/10/16 02:07:08;;;;;;;1.33;1.10;;;;;;;12.98;92.71;100916.72;5038208;28;20029;-84
2022/10/16 02:09:34;;;;;;;4.10;1.23;;;;;;;12.97;92.79;100929.00;5037784;28;20359;-84
2022/10/16 02:12:09;;;;;;;1.33;0.93;;;;;;;12.96;93.12;100927.28;5017659;28;20033;-84
2022/10/16 02:14:38;;;;;;;0.82;0.82;;;;;;;12.97;92.88;100928.13;5018783;28;20033;-84
2022/10/16 02:17:11;;;;;;;0.98;0.98;;;;;;;12.96;93.08;100923.81;5019094;28;20347;-84
2022/10/16 02:19:36;;;;;;;1.45;1.35;;;;;;;12.97;93.13;100933.41;5021348;28;20033;-84
2022/10/16 02:22:04;;;;;;;2.45;1.15;;;;;;;12.96;93.01;100935.19;5028478;28;20053;-84
2022/10/16 02:24:37;;;;;;;1.48;1.27;;;;;;;12.97;92.92;100926.38;5000396;28;20042;-86
2022/10/16 02:27:18;;;;;;;1.27;1.17;;;;;;;12.95;92.96;100922.09;5019207;28;20044;-86
2022/10/16 02:29:50;;;;;;;2.20;1.15;;;;;;;12.95;93.24;100924.72;5020691;28;20038;-86
2022/10/16 02:32:19;;;;;;;1.48;1.20;;;;;;;12.96;93.20;100929.91;5037287;28;20064;-86
2022/10/16 02:34:46;;;;;;;2.72;1.33;;;;;;;12.94;93.28;100931.78;5018605;28;20321;-86
2022/10/16 02:37:12;;;;;;;3.42;1.15;;;;;;;12.96;93.02;100926.44;5038779;28;20394;-86
2022/10/16 02:39:40;;;;;;;1.35;1.00;;;;;;;12.95;93.41;100928.25;5038958;28;20075;-86
2022/10/16 02:42:11;;;;;;;1.08;1.00;;;;;;;12.96;93.20;100931.72;5037529;28;20040;-88
2022/10/16 02:44:36;;;;;;;3.75;1.35;;;;;;;12.96;93.54;100923.81;5038538;28;20033;-89
2022/10/16 02:47:02;;;;;;;2.78;1.02;;;;;;;12.95;93.25;100927.38;5022076;28;20032;-88
2022/10/16 02:49:27;;;;;;;2.35;1.10;;;;;;;12.94;93.14;100923.91;5001206;28;20041;-89
2022/10/16 02:51:52;;;;;;;3.67;1.30;;;;;;;12.94;92.97;100929.16;5004704;28;20387;-88
2022/10/16 02:54:18;;;;;;;1.40;0.90;;;;;;;12.95;93.04;100924.72;5001139;28;20246;-89
2022/10/16 02:56:43;;;;;;;1.10;1.08;;;;;;;12.93;92.95;100927.44;5024135;28;20030;-89
2022/10/16 02:59:09;;;;;;;4.15;1.15;;;;;;;12.94;93.19;100925.69;4997779;28;20381;-89
2022/10/16 03:01:34;;;;;;;2.13;0.93;;;;;;;12.93;93.18;100931.84;5006439;28;20092;-88
2022/10/16 03:03:59;;;;;;;1.45;1.10;;;;;;;12.93;92.94;100929.22;5009784;28;20065;-89
2022/10/16 03:06:25;;;;;;;2.50;1.17;;;;;;;12.93;93.13;100937.09;5036333;28;20017;-88
2022/10/16 03:08:50;;;;;;;1.15;0.90;;;;;;;12.93;93.25;100943.22;5020801;28;20343;-89
2022/10/16 03:11:15;;;;;;;2.17;1.25;;;;;;;12.93;93.11;100937.09;5017684;28;20336;-88
2022/10/16 03:13:41;;;;;;;1.30;0.98;;;;;;;12.91;92.88;100937.19;5000449;28;20069;-89
2022/10/16 03:16:06;;;;;;;1.13;1.00;;;;;;;12.91;93.19;100942.44;5000985;28;20044;-89
2022/10/16 03:18:32;;;;;;;1.50;0.80;;;;;;;12.92;93.01;100940.69;5037528;28;20310;-88
2022/10/16 03:20:57;;;;;;;2.55;1.02;;;;;;;12.90;93.17;100953.88;5033144;28;20060;-89
2022/10/16 03:23:22;;;;;;;2.22;1.02;;;;;;;12.90;92.86;100948.63;5020040;28;20068;-89
2022/10/16 03:25:48;;;;;;;2.45;1.08;;;;;;;12.91;93.24;100955.56;5037897;28;20244;-89
2022/10/16 03:28:13;;;;;;;1.13;0.93;;;;;;;12.87;93.06;100957.50;5005715;28;20387;-88
2022/10/16 03:30:39;;;;;;;3.65;1.15;;;;;;;12.90;93.39;100961.78;5017567;28;20328;-89
2022/10/16 03:33:05;;;;;;;1.83;1.10;;;;;;;12.90;93.08;100964.41;4980443;28;20077;-88
2022/10/16 03:35:30;;;;;;;1.25;0.90;;;;;;;12.90;93.47;100964.41;4997774;28;20065;-89
2022/10/16 03:37:56;;;;;;;1.27;0.90;;;;;;;12.90;93.46;100966.16;5007125;28;20049;-89
2022/10/16 03:40:21;;;;;;;3.55;0.93;;;;;;;12.91;93.28;100960.84;5015360;28;20049;-89
2022/10/16 03:42:47;;;;;;;1.45;0.90;;;;;;;12.90;93.11;100967.03;4993537;28;20038;-88
2022/10/16 03:45:12;;;;;;;3.22;1.10;;;;;;;12.90;93.31;100966.16;4980485;28;20054;-89
2022/10/16 03:47:37;;;;;;;1.30;1.20;;;;;;;12.90;93.15;100971.41;5001779;28;20029;-88
2022/10/16 03:50:04;;;;;;;1.65;1.10;;;;;;;12.88;93.21;100971.53;4984583;28;20030;-88
2022/10/16 03:52:30;;;;;;;2.50;0.93;;;;;;;12.89;93.29;100975.00;4987716;28;20510;-89
2022/10/16 03:54:55;;;;;;;2.70;1.00;;;;;;;12.89;93.15;100988.13;4997061;28;20066;-89
2022/10/16 03:57:21;;;;;;;2.15;0.80;;;;;;;12.88;93.33;100989.91;4997867;28;20034;-89
2022/10/16 03:59:46;;;;;;;2.35;0.90;;;;;;;12.87;93.16;100982.94;4998150;28;20026;-88
2022/10/16 04:02:12;;;;;;;1.10;1.00;;;;;;;12.88;93.20;100995.16;4996320;28;20215;-89
2022/10/16 04:04:38;;;;;;;2.17;0.90;;;;;;;12.90;93.11;101000.31;5001693;28;20042;-88
2022/10/16 04:07:04;;;;;;;1.95;1.13;;;;;;;12.89;93.21;100993.38;4997031;28;20215;-89
2022/10/16 04:09:29;;;;;;;4.45;1.15;;;;;;;12.88;93.23;100992.53;4993903;28;20030;-89
2022/10/16 04:11:54;;;;;;;2.08;0.90;;;;;;;12.86;92.98;100995.25;4980827;28;20193;-89
2022/10/16 04:14:20;;;;;;;2.58;1.52;;;;;;;12.86;93.34;100994.38;4990933;28;20038;-88
2022/10/16 04:16:45;;;;;;;1.63;1.15;;;;;;;12.86;93.07;100997.88;5000101;28;20029;-88
2022/10/16 04:19:11;;;;;;;1.08;0.98;;;;;;;12.86;93.40;100995.25;4990335;28;20018;-89
2022/10/16 04:21:37;;;;;;;0.90;0.90;;;;;;;12.86;93.42;100995.25;4978345;28;20368;-89
2022/10/16 04:24:02;;;;;;;1.27;1.00;;;;;;;12.86;93.29;101008.38;4990113;28;20355;-89
2022/10/16 04:26:28;;;;;;;1.20;1.10;;;;;;;12.86;93.68;101018.03;4991507;28;20050;-89
2022/10/16 04:28:54;;;;;;;1.67;1.00;;;;;;;12.86;93.07;101015.41;5007411;28;20038;-88
2022/10/16 04:31:20;;;;;;;2.20;1.13;;;;;;;12.85;93.32;101025.06;4997486;28;20057;-89
2022/10/16 04:33:46;;;;;;;2.17;1.00;;;;;;;12.86;93.45;101021.53;4998255;28;20042;-89
2022/10/16 04:36:11;;;;;;;1.38;1.10;;;;;;;12.86;93.45;101025.91;4999583;28;20026;-89
2022/10/16 04:38:37;;;;;;;2.35;1.13;;;;;;;12.85;93.90;101018.97;5017301;28;20542;-88
2022/10/16 04:41:03;;;;;;;1.05;0.95;;;;;;;12.85;93.79;101032.94;4998748;28;20030;-88
2022/10/16 04:43:29;;;;;;;1.67;1.10;;;;;;;12.85;93.88;101042.63;4979683;28;20034;-89
2022/10/16 04:45:54;;;;;;;4.13;1.25;;;;;;;12.85;93.88;101045.25;4995612;28;20125;-89
2022/10/16 04:48:20;;;;;;;3.20;1.40;;;;;;;12.85;93.89;101047.88;5008692;28;20061;-88
2022/10/16 04:50:45;;;;;;;1.08;0.90;;;;;;;12.85;94.03;101050.50;5000074;28;20104;-88
2022/10/16 04:53:11;;;;;;;2.80;1.10;;;;;;;12.85;93.69;101053.97;5001441;28;20035;-88
2022/10/16 04:55:37;;;;;;;1.40;1.20;;;;;;;12.84;94.12;101054.91;5001517;28;20065;-88
2022/10/16 04:58:03;;;;;;;1.67;1.20;;;;;;;12.85;93.90;101063.66;4983993;28;20149;-88
2022/10/16 05:00:29;;;;;;;2.38;1.00;;;;;;;12.85;94.11;101068.91;5001233;28;20034;-89
2022/10/16 05:02:54;;;;;;;0.80;0.80;;;;;;;12.85;94.02;101066.28;4967637;28;20034;-89
2022/10/16 05:05:20;;;;;;;3.40;1.40;;;;;;;12.85;93.77;101071.53;4985209;28;20049;-88
2022/10/16 05:07:46;;;;;;;0.85;0.85;;;;;;;12.84;94.15;101072.44;5006704;28;20030;-89
2022/10/16 05:10:12;;;;;;;1.05;0.95;;;;;;;12.83;93.92;101068.97;5017722;28;20240;-89
2022/10/16 05:12:37;;;;;;;3.38;1.00;;;;;;;12.85;93.78;101076.78;5001055;28;20106;-89
2022/10/16 05:15:03;;;;;;;1.55;1.10;;;;;;;12.84;93.80;101081.19;4983821;28;20030;-89
2022/10/16 05:17:28;;;;;;;1.77;1.00;;;;;;;12.84;93.60;101078.56;5002623;28;20123;-89
2022/10/16 05:19:54;;;;;;;2.17;1.10;;;;;;;12.85;93.52;101089.94;5008101;28;20290;-88
2022/10/16 05:22:19;;;;;;;1.27;1.10;;;;;;;12.85;93.63;101098.66;4999200;28;20072;-89
2022/10/16 05:24:44;;;;;;;1.38;1.00;;;;;;;12.85;94.03;101096.03;5020321;28;20089;-89
2022/10/16 05:27:11;;;;;;;2.15;0.88;;;;;;;12.86;94.36;101094.25;5000894;28;20038;-88
2022/10/16 05:29:36;;;;;;;1.73;1.20;;;;;;;12.84;94.13;101102.22;5020404;28;20056;-89
2022/10/16 05:32:02;;;;;;;2.25;1.00;;;;;;;12.84;94.00;101109.22;5027146;28;20065;-88
2022/10/16 05:34:28;;;;;;;2.92;0.90;;;;;;;12.84;93.74;101109.22;5025970;28;20033;-88
2022/10/16 05:36:53;;;;;;;2.35;1.20;;;;;;;12.85;93.89;101116.22;5021505;28;20030;-88
2022/10/16 05:39:19;;;;;;;0.90;0.90;;;;;;;12.83;93.84;101111.03;5002395;28;20115;-88
2022/10/16 05:41:44;;;;;;;1.40;0.90;;;;;;;12.85;93.47;101105.69;5006939;28;20033;-88
2022/10/16 05:44:09;;;;;;;1.42;1.10;;;;;;;12.85;93.53;101113.59;5020261;28;20049;-88
2022/10/16 05:46:35;;;;;;;0.93;0.77;;;;;;;12.85;93.65;101116.22;5023923;28;20045;-88
2022/10/16 05:49:00;;;;;;;2.22;1.08;;;;;;;12.85;93.79;101117.06;5032435;28;20290;-88
2022/10/16 05:51:26;;;;;;;2.83;1.40;;;;;;;12.84;93.99;101117.13;5018904;28;20084;-88
2022/10/16 05:53:52;;;;;;;2.83;0.85;;;;;;;12.84;94.00;101120.63;5039823;28;20051;-89
2022/10/16 05:56:18;;;;;;;2.22;0.90;;;;;;;12.84;93.99;101120.63;5039153;28;20053;-88
2022/10/16 05:58:44;;;;;;;1.65;0.88;;;;;;;12.84;93.69;101131.13;5039013;28;20033;-89
2022/10/16 06:01:15;;;;;;;1.75;0.93;;;;;;;12.84;93.78;101118.00;5022028;28;20096;-88
2022/10/16 06:03:41;;;;;;;2.13;0.88;;;;;;;12.83;93.50;101120.69;5026786;28;20105;-88
2022/10/16 06:06:15;;;;;;;3.92;1.10;;;;;;;12.84;93.62;101127.63;5039382;28;20037;-89
2022/10/16 06:08:41;;;;;;;1.33;1.02;;;;;;;12.83;93.75;101137.31;5034278;28;20319;-88
2022/10/16 06:11:10;;;;;;;1.42;0.85;;;;;;;12.82;93.78;101137.38;5039372;28;20013;-88
2022/10/16 06:13:35;;;;;;;2.90;0.90;;;;;;;12.83;93.91;101133.84;5029094;28;20105;-89
2022/10/16 06:16:01;;;;;;;1.52;0.88;;;;;;;12.84;93.84;101132.91;4998835;28;20037;-88
2022/10/16 06:18:28;;;;;;;3.60;1.10;;;;;;;12.82;94.26;101138.25;5011935;28;20054;-88
2022/10/16 06:20:54;;;;;;;1.63;1.00;;;;;;;12.84;93.81;101148.66;5019125;28;20345;-88
2022/10/16 06:23:20;;;;;;;3.30;1.17;;;;;;;12.82;93.75;101151.38;5026866;28;20260;-88
2022/10/16 06:25:45;;;;;;;1.52;0.80;;;;;;;12.82;93.96;101158.41;5038717;28;20033;-89
2022/10/16 06:28:10;;;;;;;1.55;0.90;;;;;;;12.82;93.83;101159.28;5030474;28;20333;-88
2022/10/16 06:30:36;;;;;;;1.50;0.95;;;;;;;12.82;93.78;101150.50;5001205;28;20056;-89
2022/10/16 06:33:01;;;;;;;2.72;1.40;;;;;;;12.81;93.49;101147.03;4990107;28;20449;-89
2022/10/16 06:35:26;;;;;;;2.15;0.85;;;;;;;12.81;93.50;101154.94;4981894;28;20288;-89
2022/10/16 06:37:55;;;;;;;1.67;0.80;;;;;;;12.82;93.33;101153.13;4999582;28;20038;-89
2022/10/16 06:40:20;;;;;;;3.90;1.15;;;;;;;12.81;93.61;101152.28;4999131;28;20371;-89
2022/10/16 06:42:46;;;;;;;0.88;0.73;;;;;;;12.81;93.26;101170.69;4982250;28;20046;-88
2022/10/16 06:45:12;;;;;;;4.90;1.25;;;;;;;12.81;93.38;101170.69;5018717;28;20104;-88
2022/10/16 06:47:37;;;;;;;3.20;1.35;;;;;;;12.81;93.57;101173.31;5007288;28;20056;-89
2022/10/16 06:50:04;;;;;;;1.20;0.73;;;;;;;12.81;93.54;101180.38;5001063;28;20037;-89
2022/10/16 06:52:29;;;;;;;3.33;1.00;;;;;;;12.80;93.72;101178.66;5000479;28;20049;-88
2022/10/16 06:54:54;;;;;;;1.27;0.80;;;;;;;12.81;93.46;101177.72;4993770;28;20269;-89
2022/10/16 06:57:20;;;;;;;7.18;1.23;;;;;;;12.81;93.83;101191.72;4997538;28;20038;-89
2022/10/16 06:59:45;;;;;;;1.58;0.90;;;;;;;12.81;93.66;101190.88;5001573;28;20038;-88
2022/10/16 07:02:11;;;;;;;2.83;0.82;;;;;;;12.81;93.70;101204.00;4981284;28;20062;-88
2022/10/16 07:04:36;;;;;;;4.07;1.15;;;;;;;12.77;93.86;101198.03;4997690;28;20041;-89
2022/10/16 07:07:02;;;;;;;3.13;1.38;;;;;;;12.79;93.79;101209.34;4997832;28;20137;-89
2022/10/16 07:09:27;;;;;;;1.42;0.68;;;;;;;12.78;93.83;101218.13;4996830;28;20346;-89
2022/10/16 07:11:53;;;;;;;9.73;1.30;;;;;;;12.79;93.67;101224.25;4998733;28;20217;-88
2022/10/16 07:14:20;;;;;;;1.17;1.00;;;;;;;12.78;93.33;101227.78;4981041;28;20034;-89
2022/10/16 07:16:46;;;;;;;2.80;1.00;;;;;;;12.78;93.83;101228.63;4998126;28;20033;-89
2022/10/16 07:19:14;;;;;;;2.25;0.93;;;;;;;12.77;93.68;101242.72;4997932;28;20026;-89
2022/10/16 07:21:40;;;;;;;4.90;1.15;;;;;;;12.78;93.92;101246.19;4997701;28;20030;-89
2022/10/16 07:24:11;;;;;;;3.58;1.48;;;;;;;12.79;94.03;101248.75;4998626;28;20123;-89
2022/10/16 07:26:38;;;;;;;2.97;1.75;;;;;;;12.79;93.94;101251.38;4997773;28;20088;-89
2022/10/16 07:29:06;;;;;;;2.05;1.00;;;;;;;12.79;93.83;101256.66;4998396;28;20042;-89
2022/10/16 07:31:32;;;;;;;5.68;0.93;;;;;;;12.80;93.85;101262.75;4998107;28;20278;-89
2022/10/16 07:33:59;;;;;;;2.55;1.20;;;;;;;12.80;93.93;101270.63;5025577;28;20061;-88
2022/10/16 07:36:24;;;;;;;2.17;1.00;;;;;;;12.80;94.21;101275.88;5001727;28;20046;-88
2022/10/16 07:38:49;;;;;;;3.90;1.42;;;;;;;12.81;94.22;101280.25;5001254;28;20345;-89
2022/10/16 07:41:18;;;;;;;5.20;1.50;;;;;;;12.80;94.36;101282.00;5001302;28;20041;-89
2022/10/16 07:43:51;;;;;;;2.25;1.08;;;;;;;12.81;94.51;101285.50;5017206;28;20244;-88
2022/10/16 07:46:17;;;;;;;3.83;1.35;;;;;;;12.81;94.26;101290.75;4995684;28;20033;-89
2022/10/16 07:48:47;;;;;;;4.90;1.10;;;;;;;12.81;94.67;101290.75;4995942;28;20033;-88
2022/10/16 07:51:18;;;;;;;1.73;0.88;;;;;;;12.80;94.42;101295.13;5013933;28;20057;-89
2022/10/16 07:53:43;;;;;;;4.43;1.33;;;;;;;12.81;94.64;101294.22;5014720;28;20038;-89
2022/10/16 07:56:09;;;;;;;3.97;1.50;;;;;;;12.82;94.63;101300.31;5014649;28;20045;-89
2022/10/16 07:58:37;;;;;;;1.25;0.98;;;;;;;12.82;94.36;101297.69;5015434;28;20032;-88
2022/10/16 08:01:10;;;;;;;2.08;1.35;;;;;;;12.81;94.42;101309.16;5014109;28;20045;-89
2022/10/16 08:03:36;;;;;;;2.47;1.27;;;;;;;12.81;94.38;101312.63;5015786;28;20061;-89
2022/10/16 08:06:03;;;;;;;5.28;1.50;;;;;;;12.83;94.33;101323.06;5015873;28;20032;-88
2022/10/16 08:08:28;;;;;;;4.55;1.30;;;;;;;12.82;94.49;101332.75;5014539;28;20073;-88
2022/10/16 08:10:54;;;;;;;3.10;1.48;;;;;;;12.82;94.11;101331.88;5013783;28;20355;-88
2022/10/16 08:13:20;;;;;;;4.82;1.40;;;;;;;12.82;93.99;101337.13;5014890;28;20034;-89
2022/10/16 08:15:46;;;;;;;2.17;1.00;;;;;;;12.83;94.23;101337.06;5020209;28;20371;-89
2022/10/16 08:18:14;;;;;;;3.15;1.17;;;;;;;12.83;93.48;101346.72;5030356;28;20018;-89
2022/10/16 08:20:40;;;;;;;7.68;1.30;;;;;;;12.83;94.03;101344.94;5014758;28;20352;-88
2022/10/16 08:23:06;;;;;;;5.13;1.65;;;;;;;12.83;93.89;101347.56;5018310;28;20069;-89
2022/10/16 08:25:35;;;;;;;7.95;1.88;;;;;;;12.85;94.14;101365.91;5019772;28;20112;-88
2022/10/16 08:28:03;;;;;;;2.08;1.13;;;;;;;12.85;93.85;101358.88;5034906;28;20096;-88
2022/10/16 08:30:28;;;;;;;5.47;1.65;;;;;;;12.85;93.83;101358.88;5019229;28;20410;-89
2022/10/16 08:32:54;;;;;;;4.20;1.40;;;;;;;12.86;93.84;101359.72;5019320;28;20054;-89
2022/10/16 08:35:19;;;;;;;7.57;1.60;;;;;;;12.87;94.71;101372.81;5001246;28;20317;-88
2022/10/16 08:37:44;;;;;;;4.82;1.40;;;;;;;12.87;94.57;101370.19;5019028;28;20096;-88
2022/10/16 08:40:20;;;;;;;5.05;1.20;;;;;;;12.87;94.53;101383.31;5018493;28;20477;-88
2022/10/16 08:43:03;;;;;;;5.65;1.42;;;;;;;12.90;93.98;101394.63;5019240;28;20304;-88
2022/10/16 08:46:12;;;;;;;6.38;1.17;;;;;;;12.90;94.38;101390.25;5018836;28;20030;-89
2022/10/16 08:48:49;;;;;;;7.85;1.55;;;;;;;12.91;94.41;101386.69;5017946;28;20030;-89
2022/10/16 08:51:24;;;;;;;6.95;1.52;;;;;;;12.92;94.59;101395.44;5019079;28;20029;-88
2022/10/16 08:54:02;;;;;;;4.60;1.10;;;;;;;12.93;94.57;101394.50;5001763;28;20030;-89
2022/10/16 08:56:28;;;;;;;;;;;;;;;12.94;94.30;101404.97;5019261;28;20092;-89
2022/10/16 08:58:54;;;;;;;6.63;1.40;;;;;;;12.94;94.56;101394.44;5019206;28;19913;-89
2022/10/16 09:01:25;;;;;;;4.57;1.40;;;;;;;12.96;94.42;101400.50;5001230;28;20340;-88
2022/10/16 09:04:11;;;;;;;7.18;1.35;;;;;;;12.98;94.74;101411.78;5017993;28;20280;-88
2022/10/16 09:06:43;;;;;;;7.65;1.70;;;;;;;12.99;94.71;101407.41;5019312;28;20068;-89
2022/10/16 09:09:32;;;;;;;7.50;1.45;;;;;;;13.00;94.78;101415.22;5019038;28;20030;-88
2022/10/16 09:12:24;;;;;;;6.43;1.90;;;;;;;13.02;95.13;101421.28;5017638;28;20371;-89
2022/10/16 09:14:54;;;;;;;2.47;1.20;;;;;;;13.04;94.60;101424.72;5018887;28;20320;-88
2022/10/16 09:17:29;;;;;;;4.25;1.17;;;;;;;13.06;95.17;101420.22;5000908;28;20029;-88
2022/10/16 09:20:28;;;;;;;6.90;1.48;;;;;;;13.08;94.59;101422.81;5018989;28;20042;-88
2022/10/16 09:23:11;;;;;;;11.27;2.22;;;;;;;13.09;94.60;101423.66;5018458;28;20029;-88
2022/10/16 09:25:40;;;;;;;11.35;1.83;;;;;;;13.11;94.95;101425.28;5019042;28;20332;-89
2022/10/16 09:28:07;;;;;;;;;;;;;;;13.12;95.06;101427.00;5019320;28;20106;-88
2022/10/16 09:30:32;;;;;;;11.55;1.85;;;;;;;13.14;95.09;101433.06;5017842;28;19921;-88
2022/10/16 09:32:58;;;;;;;9.70;1.83;;;;;;;13.18;95.21;101439.03;5017689;28;20096;-88
2022/10/16 09:35:45;;;;;;;9.85;2.28;;;;;;;13.17;94.87;101435.56;5016677;28;20068;-88
2022/10/16 09:38:29;;;;;;;13.65;1.80;;;;;;;13.19;94.17;101436.34;5001051;28;20104;-88
2022/10/16 09:40:57;;;;;;;13.25;2.20;;;;;;;13.21;94.51;101437.13;5018353;28;20037;-89
2022/10/16 09:43:25;;;;;;;15.85;2.08;;;;;;;13.24;94.34;101438.78;5018378;28;20022;-89
2022/10/16 09:46:06;;;;;;;10.00;1.83;;;;;;;13.27;94.56;101440.44;5000741;28;20224;-89
2022/10/16 09:48:36;;;;;;;6.57;1.95;;;;;;;13.27;94.12;101443.06;5018244;28;20096;-89
2022/10/16 09:51:03;;;;;;;8.45;1.83;;;;;;;13.28;94.29;101439.50;5018161;28;20042;-88
2022/10/16 09:53:54;;;;;;;8.30;1.42;;;;;;;13.31;94.94;101447.31;5017876;28;20030;-89
2022/10/16 09:56:25;;;;;;;6.82;1.50;;;;;;;13.33;94.72;101450.72;5000237;28;20092;-88
2022/10/16 09:58:57;;;;;;;9.68;1.50;;;;;;;13.34;94.24;101452.44;5018020;28;20076;-88
2022/10/16 10:01:29;;;;;;;10.80;1.50;;;;;;;13.35;93.76;101441.84;5017122;28;20325;-88
2022/10/16 10:04:00;;;;;;;7.80;1.52;;;;;;;13.36;93.62;101454.06;5018050;28;20308;-88
2022/10/16 10:06:32;;;;;;;12.45;2.08;;;;;;;13.39;93.22;101450.47;5017454;28;20057;-89
2022/10/16 10:08:58;;;;;;;9.02;2.28;;;;;;;13.41;93.64;101456.53;5017975;28;20037;-88
2022/10/16 10:11:45;;;;;;;8.35;1.48;;;;;;;13.45;93.64;101452.84;5017317;28;20373;-88
2022/10/16 10:14:21;;;;;;;5.97;1.48;;;;;;;13.48;93.81;101455.34;5017805;28;20292;-88
2022/10/16 10:16:47;;;;;;;8.32;1.60;;;;;;;13.53;94.15;101463.03;5018006;28;20049;-89
2022/10/16 10:19:21;;;;;;;6.75;1.77;;;;;;;13.56;93.49;101470.78;5000309;28;20030;-89
2022/10/16 10:21:47;;;;;;;10.30;1.70;;;;;;;13.58;92.92;101479.47;4999546;28;20033;-87
2022/10/16 10:24:15;;;;;;;9.90;1.40;;;;;;;13.58;91.70;101472.41;5000095;28;20207;-87
2022/10/16 10:27:16;;;;;;;5.25;1.55;;;;;;;13.59;91.73;101470.66;5017768;28;20025;-88
2022/10/16 10:29:59;;;;;;;4.78;1.35;;;;;;;13.60;91.70;101475.84;4975670;28;20149;-89
2022/10/16 10:32:47;;;;;;;5.03;1.20;;;;;;;13.61;91.48;101479.34;5005448;28;20093;-89
2022/10/16 10:35:34;;;;;;;11.07;1.30;;;;;;;13.61;91.85;101482.81;4997491;28;20034;-89
2022/10/16 10:38:20;;;;;;;7.00;1.42;;;;;;;13.61;91.59;101496.00;4996500;28;20026;-89
2022/10/16 10:40:58;;;;;;;8.55;1.45;;;;;;;13.60;91.28;101491.63;4998044;28;20041;-89
2022/10/16 10:43:53;;;;;;;9.23;1.65;;;;;;;13.61;91.34;101492.50;4997611;28;20030;-89
2022/10/16 10:46:40;;;;;;;12.23;1.75;;;;;;;13.61;90.37;101488.09;4997421;28;20073;-89
2022/10/16 10:49:09;;;;;;;10.98;1.40;;;;;;;13.62;89.92;101499.47;4996449;28;20026;-89
2022/10/16 10:51:43;;;;;;;4.88;0.93;;;;;;;13.63;90.09;101502.03;4997202;28;20030;-89
2022/10/16 10:54:31;;;;;;;11.13;1.92;;;;;;;13.65;90.01;101496.72;4997426;28;20064;-89
2022/10/16 10:57:21;;;;;;;8.80;1.83;;;;;;;13.67;90.51;101501.91;4995972;28;20033;-89
2022/10/16 10:59:52;;;;;;;4.15;1.27;;;;;;;13.68;89.27;101498.34;4996808;28;20134;-89
2022/10/16 11:02:18;;;;;;;8.05;1.42;;;;;;;13.70;89.13;101505.28;4997373;28;20030;-89
2022/10/16 11:04:43;;;;;;;9.57;1.45;;;;;;;13.74;89.63;101500.72;4984875;28;20030;-87
2022/10/16 11:07:16;;;;;;;8.60;1.77;;;;;;;13.77;89.97;101514.63;4997121;28;20070;-89
2022/10/16 11:09:52;;;;;;;8.57;1.15;;;;;;;13.81;89.72;101520.59;4995431;28;20316;-89
2022/10/16 11:12:24;;;;;;;10.43;1.60;;;;;;;13.84;90.15;101523.06;4996956;28;20285;-89
2022/10/16 11:15:04;;;;;;;9.32;1.42;;;;;;;13.88;89.91;101519.41;4979822;28;20026;-88
2022/10/16 11:17:39;;;;;;;8.30;1.60;;;;;;;13.90;89.76;101521.94;4995004;28;20233;-89
2022/10/16 11:20:19;;;;;;;6.18;1.50;;;;;;;13.93;90.06;101521.81;4997183;28;20057;-89
2022/10/16 11:23:11;;;;;;;7.28;1.35;;;;;;;13.95;89.58;101527.88;4979347;28;20069;-89
2022/10/16 11:25:39;;;;;;;6.40;1.38;;;;;;;13.98;89.56;101533.88;4996687;28;20324;-89
2022/10/16 11:28:13;;;;;;;4.07;1.20;;;;;;;14.01;89.50;101539.00;4997001;28;20329;-89
2022/10/16 11:30:47;;;;;;;14.27;2.08;;;;;;;14.05;88.32;101538.88;4995168;28;20042;-89
2022/10/16 11:33:22;;;;;;;10.07;1.88;;;;;;;14.08;88.83;101544.00;4976913;28;20050;-89
2022/10/16 11:36:03;;;;;;;11.75;2.17;;;;;;;14.09;85.88;101543.94;4975945;28;20061;-89